createdAt,value
2019-02-21T00:01:20.501Z,5.80
2019-02-21T00:03:50.636Z,5.70
2019-02-21T00:06:20.010Z,5.60
2019-02-21T00:08:49.455Z,5.70
2019-02-21T00:11:19.302Z,5.80
2019-02-21T00:13:48.722Z,5.80
2019-02-21T00:16:18.223Z,5.90
2019-02-21T00:18:47.968Z,5.90
2019-02-21T00:21:17.538Z,5.90
2019-02-21T00:23:47.057Z,5.80
2019-02-21T00:26:16.462Z,5.80
2019-02-21T00:28:45.891Z,5.70
2019-02-21T00:31:17.110Z,5.70
2019-02-21T00:33:46.816Z,5.70
2019-02-21T00:36:16.329Z,5.80
2019-02-21T00:38:45.664Z,5.80
2019-02-21T00:41:17.000Z,5.80
2019-02-21T00:43:46.367Z,5.80
2019-02-21T00:46:17.753Z,5.80
2019-02-21T00:48:47.324Z,5.80
2019-02-21T00:51:18.124Z,5.80
2019-02-21T00:53:51.742Z,5.80
2019-02-21T00:56:21.118Z,5.80
2019-02-21T00:58:52.281Z,5.80
2019-02-21T01:01:22.319Z,5.80
2019-02-21T01:03:51.760Z,5.80
2019-02-21T01:06:21.400Z,5.80
2019-02-21T01:08:50.786Z,5.80
2019-02-21T01:11:20.251Z,5.70
2019-02-21T01:13:49.657Z,5.70
2019-02-21T01:16:19.556Z,5.60
2019-02-21T01:18:48.974Z,5.40
2019-02-21T01:21:18.693Z,5.20
2019-02-21T01:23:54.950Z,5.20
2019-02-21T01:26:24.476Z,5.20
2019-02-21T01:28:53.855Z,5.20
2019-02-21T01:31:23.597Z,5.20
2019-02-21T01:33:57.546Z,5.30
2019-02-21T01:36:28.679Z,5.30
2019-02-21T01:38:58.158Z,5.40
2019-02-21T01:41:30.938Z,5.40
2019-02-21T01:44:00.549Z,5.40
2019-02-21T01:46:31.486Z,5.40
2019-02-21T01:49:01.408Z,5.40
2019-02-21T01:51:34.864Z,5.40
2019-02-21T01:54:07.438Z,5.40
2019-02-21T01:56:39.796Z,5.30
2019-02-21T01:59:09.348Z,5.30
2019-02-21T02:01:39.059Z,5.30
2019-02-21T02:04:14.527Z,5.20
2019-02-21T02:06:43.919Z,5.30
2019-02-21T02:09:16.401Z,5.30
2019-02-21T02:11:47.715Z,5.30
2019-02-21T02:14:22.608Z,5.30
2019-02-21T02:16:54.836Z,5.30
2019-02-21T02:19:44.948Z,5.20
2019-02-21T02:22:14.365Z,5.10
2019-02-21T02:24:46.641Z,5.00
2019-02-21T02:27:18.959Z,5.00
2019-02-21T02:29:48.325Z,5.00
2019-02-21T02:32:18.003Z,5.00
2019-02-21T02:34:49.013Z,5.00
2019-02-21T02:37:18.437Z,5.00
2019-02-21T02:39:52.529Z,5.00
2019-02-21T02:42:21.893Z,5.00
2019-02-21T02:44:51.403Z,5.00
2019-02-21T02:47:21.040Z,5.00
2019-02-21T02:49:53.622Z,5.00
2019-02-21T02:52:24.204Z,5.00
2019-02-21T02:54:53.759Z,4.90
2019-02-21T02:57:23.145Z,4.90
2019-02-21T03:00:13.042Z,4.90
2019-02-21T03:02:42.620Z,4.90
2019-02-21T03:05:12.141Z,4.90
2019-02-21T03:07:43.841Z,5.00
2019-02-21T03:10:14.467Z,5.00
2019-02-21T03:12:48.868Z,5.00
2019-02-21T03:15:18.479Z,4.90
2019-02-21T03:17:47.880Z,4.90
2019-02-21T03:20:17.283Z,4.90
2019-02-21T03:22:46.681Z,4.80
2019-02-21T03:25:16.192Z,4.70
2019-02-21T03:27:46.024Z,4.60
2019-02-21T03:30:15.440Z,4.50
2019-02-21T03:32:45.297Z,4.50
2019-02-21T03:35:14.746Z,4.50
2019-02-21T03:37:46.245Z,4.30
2019-02-21T03:40:15.982Z,4.20
2019-02-21T03:42:45.407Z,4.00
2019-02-21T03:45:15.355Z,3.90
2019-02-21T03:47:44.760Z,3.90
2019-02-21T03:50:14.598Z,3.90
2019-02-21T03:52:44.018Z,3.90
2019-02-21T03:55:13.483Z,3.90
2019-02-21T03:57:43.057Z,3.90
2019-02-21T04:00:12.503Z,3.80
2019-02-21T04:02:42.001Z,3.80
2019-02-21T04:05:11.394Z,3.80
2019-02-21T04:07:41.160Z,3.80
2019-02-21T04:10:10.502Z,3.80
2019-02-21T04:12:40.273Z,3.70
2019-02-21T04:15:11.279Z,3.70
2019-02-21T04:17:40.997Z,3.70
2019-02-21T04:20:10.346Z,3.80
2019-02-21T04:22:39.823Z,3.70
2019-02-21T04:25:09.260Z,3.70
2019-02-21T04:27:38.863Z,3.60
2019-02-21T04:30:08.333Z,3.60
2019-02-21T04:32:37.949Z,3.50
2019-02-21T04:35:07.453Z,3.40
2019-02-21T04:37:37.061Z,3.40
2019-02-21T04:40:07.139Z,3.40
2019-02-21T04:42:36.528Z,3.40
2019-02-21T04:45:06.577Z,3.50
2019-02-21T04:47:35.949Z,3.50
2019-02-21T04:50:05.805Z,3.40
2019-02-21T04:52:35.255Z,3.40
2019-02-21T04:55:04.627Z,3.40
2019-02-21T04:57:34.481Z,3.40
2019-02-21T05:00:04.219Z,3.50
2019-02-21T05:02:33.981Z,3.50
2019-02-21T05:05:03.449Z,3.60
2019-02-21T05:07:33.322Z,3.60
2019-02-21T05:10:02.741Z,3.60
2019-02-21T05:12:32.121Z,3.60
2019-02-21T05:15:02.109Z,3.60
2019-02-21T05:17:31.845Z,3.70
2019-02-21T05:20:01.410Z,3.70
2019-02-21T05:22:31.047Z,3.70
2019-02-21T05:25:01.538Z,3.80
2019-02-21T05:27:34.586Z,3.70
2019-02-21T05:30:05.329Z,3.70
2019-02-21T05:32:42.216Z,3.60
2019-02-21T05:35:17.232Z,3.50
2019-02-21T05:38:23.624Z,3.50
2019-02-21T05:41:14.788Z,3.50
2019-02-21T05:44:09.356Z,3.50
2019-02-21T05:47:00.614Z,3.60
2019-02-21T05:49:46.942Z,3.50
2019-02-21T05:52:37.267Z,3.60
2019-02-21T05:55:12.642Z,3.60
2019-02-21T05:58:08.586Z,3.70
2019-02-21T06:00:49.361Z,3.70
2019-02-21T06:03:46.864Z,3.80
2019-02-21T06:06:53.504Z,3.80
2019-02-21T06:09:35.917Z,3.80
2019-02-21T06:12:14.656Z,3.80
2019-02-21T06:14:50.069Z,3.80
2019-02-21T06:17:34.748Z,3.80
2019-02-21T06:20:22.423Z,3.80
2019-02-21T06:23:19.995Z,3.80
2019-02-21T06:25:59.343Z,3.70
2019-02-21T06:28:36.353Z,3.70
2019-02-21T06:31:09.505Z,3.70
2019-02-21T06:33:39.179Z,3.60
2019-02-21T06:36:08.613Z,3.60
2019-02-21T06:38:39.087Z,3.60
2019-02-21T06:41:08.755Z,3.60
2019-02-21T06:43:38.343Z,3.60
2019-02-21T06:46:07.953Z,3.70
2019-02-21T06:48:37.617Z,3.70
2019-02-21T06:51:07.848Z,3.70
2019-02-21T06:53:38.984Z,3.70
2019-02-21T06:56:08.572Z,3.70
2019-02-21T06:58:38.120Z,3.70
2019-02-21T07:01:07.583Z,3.60
2019-02-21T07:03:37.076Z,3.50
2019-02-21T07:06:06.839Z,3.40
2019-02-21T07:08:36.370Z,3.40
2019-02-21T07:11:06.682Z,3.50
2019-02-21T07:13:36.634Z,3.50
2019-02-21T07:16:06.142Z,3.50
2019-02-21T07:18:35.646Z,3.40
2019-02-21T07:21:05.305Z,3.50
2019-02-21T07:23:43.110Z,3.50
2019-02-21T07:26:14.868Z,3.20
2019-02-21T07:28:44.460Z,3.10
2019-02-21T07:31:14.006Z,3.00
2019-02-21T07:33:43.410Z,2.90
2019-02-21T07:36:13.127Z,3.00
2019-02-21T07:38:42.588Z,3.20
2019-02-21T07:41:12.092Z,3.40
2019-02-21T07:43:41.503Z,3.50
2019-02-21T07:46:11.307Z,3.50
2019-02-21T07:48:40.778Z,3.60
2019-02-21T07:51:10.170Z,3.60
2019-02-21T07:53:39.720Z,3.70
2019-02-21T07:56:09.451Z,3.70
2019-02-21T07:58:39.692Z,3.70
2019-02-21T08:01:09.410Z,3.70
2019-02-21T08:03:44.306Z,3.70
2019-02-21T08:06:10.862Z,3.70
2019-02-21T08:08:40.373Z,3.80
2019-02-21T08:11:10.232Z,3.80
2019-02-21T08:13:42.749Z,3.70
2019-02-21T08:16:12.686Z,3.80
2019-02-21T08:18:42.118Z,3.80
2019-02-21T08:21:14.865Z,3.80
2019-02-21T08:23:50.471Z,3.80
2019-02-21T08:26:15.734Z,4.00
2019-02-21T08:28:45.337Z,4.00
2019-02-21T08:31:14.838Z,4.00
2019-02-21T08:33:58.720Z,4.10
2019-02-21T08:36:27.036Z,4.10
2019-02-21T08:38:56.401Z,4.20
2019-02-21T08:41:25.970Z,4.30
2019-02-21T08:43:57.437Z,4.30
2019-02-21T08:46:26.865Z,4.40
2019-02-21T08:48:56.844Z,4.50
2019-02-21T08:51:26.287Z,4.60
2019-02-21T08:53:55.707Z,4.70
2019-02-21T08:56:25.365Z,4.80
2019-02-21T08:58:54.787Z,4.90
2019-02-21T09:01:24.353Z,5.00
2019-02-21T09:04:09.897Z,5.10
2019-02-21T09:06:30.925Z,5.20
2019-02-21T09:09:00.381Z,5.20
2019-02-21T09:11:29.929Z,5.10
2019-02-21T09:14:03.013Z,5.10
2019-02-21T09:16:32.332Z,5.10
2019-02-21T09:19:01.709Z,5.10
2019-02-21T09:21:31.407Z,5.00
2019-02-21T09:24:00.845Z,5.10
2019-02-21T09:26:30.459Z,5.20
2019-02-21T09:28:59.990Z,5.20
2019-02-21T09:31:29.342Z,5.20
2019-02-21T09:33:58.796Z,5.20
2019-02-21T09:36:28.258Z,5.20
2019-02-21T09:38:57.775Z,5.30
2019-02-21T09:41:28.718Z,5.40
2019-02-21T09:43:58.334Z,5.50
2019-02-21T09:46:27.766Z,5.50
2019-02-21T09:48:57.262Z,5.60
2019-02-21T09:51:27.206Z,5.50
2019-02-21T09:53:56.893Z,5.60
2019-02-21T09:56:30.668Z,5.70
2019-02-21T09:58:58.693Z,5.80
2019-02-21T10:01:28.099Z,5.90
2019-02-21T10:03:57.768Z,6.00
2019-02-21T10:06:27.241Z,6.20
2019-02-21T10:08:56.691Z,6.30
2019-02-21T10:11:26.107Z,6.40
2019-02-21T10:13:55.627Z,6.50
2019-02-21T10:16:27.172Z,6.60
2019-02-21T10:18:57.418Z,6.80
2019-02-21T10:21:27.098Z,7.00
2019-02-21T10:23:56.851Z,7.20
2019-02-21T10:26:26.627Z,7.20
2019-02-21T10:28:56.085Z,7.40
2019-02-21T10:31:25.495Z,7.50
2019-02-21T10:33:54.821Z,7.70
2019-02-21T10:36:24.570Z,7.80
2019-02-21T10:38:53.958Z,8.00
2019-02-21T10:41:23.329Z,8.10
2019-02-21T10:43:52.979Z,8.30
2019-02-21T10:46:22.665Z,8.40
2019-02-21T10:48:52.070Z,8.50
2019-02-21T10:51:21.434Z,8.70
2019-02-21T10:53:51.143Z,8.80
2019-02-21T10:56:20.557Z,9.00
2019-02-21T10:58:49.914Z,9.10
2019-02-21T11:01:19.289Z,9.30
2019-02-21T11:03:48.736Z,9.40
2019-02-21T11:06:20.084Z,9.50
2019-02-21T11:08:49.687Z,9.60
2019-02-21T11:11:21.269Z,9.80
2019-02-21T11:13:51.857Z,9.90
2019-02-21T11:16:21.385Z,10.10
2019-02-21T11:18:51.038Z,10.20
2019-02-21T11:21:20.664Z,10.30
2019-02-21T11:23:50.045Z,10.50
2019-02-21T11:26:22.391Z,10.60
2019-02-21T11:28:51.997Z,10.70
2019-02-21T11:31:21.604Z,10.80
2019-02-21T11:33:51.142Z,10.80
2019-02-21T11:36:20.878Z,10.90
2019-02-21T11:38:50.547Z,11.00
2019-02-21T11:41:21.737Z,11.10
2019-02-21T11:43:51.184Z,11.20
2019-02-21T11:46:20.550Z,11.20
2019-02-21T11:48:50.000Z,11.30
2019-02-21T11:51:22.939Z,11.30
2019-02-21T11:53:52.585Z,11.40
2019-02-21T11:56:21.991Z,11.50
2019-02-21T11:58:51.384Z,11.80
2019-02-21T12:01:20.980Z,11.90
2019-02-21T12:03:50.724Z,12.00
2019-02-21T12:06:20.205Z,12.10
2019-02-21T12:08:49.636Z,12.00
2019-02-21T12:11:19.294Z,12.00
2019-02-21T12:13:48.860Z,12.00
2019-02-21T12:16:18.243Z,12.00
2019-02-21T12:18:48.201Z,11.90
2019-02-21T12:21:17.618Z,11.90
2019-02-21T12:23:47.612Z,11.90
2019-02-21T12:26:16.981Z,11.90
2019-02-21T12:28:46.869Z,11.90
2019-02-21T12:31:16.268Z,11.90
2019-02-21T12:33:45.640Z,11.90
2019-02-21T12:36:15.441Z,11.90
2019-02-21T12:38:45.012Z,11.90
2019-02-21T12:41:14.973Z,11.90
2019-02-21T12:43:44.320Z,11.90
2019-02-21T12:46:13.887Z,11.90
2019-02-21T12:48:43.422Z,11.90
2019-02-21T12:51:12.851Z,11.90
2019-02-21T12:53:42.197Z,11.80
2019-02-21T12:56:11.577Z,11.80
2019-02-21T12:58:41.253Z,11.80
2019-02-21T13:01:10.835Z,11.90
2019-02-21T13:03:40.806Z,11.90
2019-02-21T13:06:10.197Z,11.90
2019-02-21T13:08:39.560Z,11.80
2019-02-21T13:11:09.311Z,11.90
2019-02-21T13:13:39.124Z,11.80
2019-02-21T13:16:10.718Z,11.80
2019-02-21T13:18:40.221Z,11.90
2019-02-21T13:21:09.701Z,11.90
2019-02-21T13:23:43.444Z,11.90
2019-02-21T13:26:12.892Z,12.00
2019-02-21T13:28:42.413Z,12.00
2019-02-21T13:31:14.370Z,12.00
2019-02-21T13:33:43.839Z,12.10
2019-02-21T13:36:13.589Z,12.10
2019-02-21T13:38:43.009Z,12.10
2019-02-21T13:41:12.422Z,12.10
2019-02-21T13:43:42.013Z,12.20
2019-02-21T13:46:11.393Z,12.10
2019-02-21T13:48:41.278Z,12.10
2019-02-21T13:51:10.797Z,12.10
2019-02-21T13:53:40.381Z,12.10
2019-02-21T13:56:11.176Z,12.10
2019-02-21T13:58:40.911Z,12.10
2019-02-21T14:01:10.339Z,12.10
2019-02-21T14:03:39.889Z,12.10
2019-02-21T14:06:09.302Z,12.10
2019-02-21T14:08:38.887Z,12.10
2019-02-21T14:11:08.277Z,12.00
2019-02-21T14:13:37.643Z,12.00
2019-02-21T14:16:07.079Z,12.00
2019-02-21T14:18:36.984Z,12.10
2019-02-21T14:21:06.737Z,12.10
2019-02-21T14:23:36.523Z,12.00
2019-02-21T14:26:07.946Z,12.00
2019-02-21T14:28:37.592Z,12.00
2019-02-21T14:31:07.541Z,11.90
2019-02-21T14:33:37.254Z,11.90
2019-02-21T14:36:15.239Z,11.90
2019-02-21T14:38:38.029Z,11.90
2019-02-21T14:41:07.817Z,11.90
2019-02-21T14:43:37.208Z,11.90
2019-02-21T14:46:07.015Z,12.00
2019-02-21T14:48:36.609Z,12.00
2019-02-21T14:51:06.162Z,12.10
2019-02-21T14:53:35.773Z,12.10
2019-02-21T14:56:08.813Z,12.20
2019-02-21T14:58:38.403Z,12.30
2019-02-21T15:01:08.468Z,12.30
2019-02-21T15:03:38.521Z,12.30
2019-02-21T15:06:08.114Z,12.30
2019-02-21T15:08:37.896Z,12.30
2019-02-21T15:11:07.524Z,12.20
2019-02-21T15:13:37.187Z,12.20
2019-02-21T15:16:06.677Z,12.10
2019-02-21T15:18:36.046Z,12.10
2019-02-21T15:21:06.018Z,12.00
2019-02-21T15:23:37.092Z,11.90
2019-02-21T15:26:06.464Z,11.80
2019-02-21T15:28:36.018Z,11.70
2019-02-21T15:31:06.030Z,11.70
2019-02-21T15:33:35.641Z,11.70
2019-02-21T15:36:05.503Z,11.70
2019-02-21T15:38:39.974Z,11.70
2019-02-21T15:41:09.526Z,11.70
2019-02-21T15:43:39.222Z,11.70
2019-02-21T15:46:09.015Z,11.70
2019-02-21T15:48:38.957Z,11.60
2019-02-21T15:51:08.804Z,11.60
2019-02-21T15:53:38.753Z,11.50
2019-02-21T15:56:08.543Z,11.50
2019-02-21T15:58:38.070Z,11.40
2019-02-21T16:01:07.810Z,11.30
2019-02-21T16:03:37.459Z,11.30
2019-02-21T16:06:09.040Z,11.20
2019-02-21T16:08:38.599Z,11.20
2019-02-21T16:11:08.036Z,11.20
2019-02-21T16:13:37.608Z,11.20
2019-02-21T16:16:07.303Z,11.10
2019-02-21T16:18:36.836Z,11.10
2019-02-21T16:21:06.869Z,11.00
2019-02-21T16:23:36.488Z,11.00
2019-02-21T16:26:05.861Z,11.00
2019-02-21T16:28:35.486Z,10.90
2019-02-21T16:31:05.492Z,10.90
2019-02-21T16:33:35.053Z,10.90
2019-02-21T16:36:04.873Z,10.80
2019-02-21T16:38:34.649Z,10.80
2019-02-21T16:41:04.248Z,10.70
2019-02-21T16:43:33.977Z,10.70
2019-02-21T16:46:07.878Z,10.70
2019-02-21T16:48:35.643Z,10.60
2019-02-21T16:51:06.535Z,10.60
2019-02-21T16:53:36.175Z,10.50
2019-02-21T16:56:05.972Z,10.50
2019-02-21T16:58:35.794Z,10.40
2019-02-21T17:01:05.786Z,10.40
2019-02-21T17:03:35.395Z,10.40
2019-02-21T17:06:05.453Z,10.30
2019-02-21T17:08:35.547Z,10.30
2019-02-21T17:11:05.386Z,10.30
2019-02-21T17:13:35.507Z,10.20
2019-02-21T17:16:05.360Z,10.30
2019-02-21T17:18:35.409Z,10.30
2019-02-21T17:21:05.100Z,10.30
2019-02-21T17:23:35.076Z,10.30
2019-02-21T17:26:04.540Z,10.30
2019-02-21T17:28:34.706Z,10.20
2019-02-21T17:31:07.534Z,10.20
2019-02-21T17:33:37.180Z,10.20
2019-02-21T17:36:06.853Z,10.10
2019-02-21T17:38:36.494Z,10.10
2019-02-21T17:41:06.410Z,10.00
2019-02-21T17:43:36.473Z,9.90
2019-02-21T17:46:06.276Z,9.90
2019-02-21T17:48:36.183Z,9.90
2019-02-21T17:51:06.381Z,9.80
2019-02-21T17:53:36.189Z,9.80
2019-02-21T17:56:06.106Z,9.80
2019-02-21T17:58:36.050Z,9.80
2019-02-21T18:01:06.470Z,9.80
2019-02-21T18:03:36.665Z,9.80
2019-02-21T18:06:07.130Z,9.80
2019-02-21T18:08:38.462Z,9.80
2019-02-21T18:11:12.447Z,9.70
2019-02-21T18:13:42.005Z,9.70
2019-02-21T18:16:12.703Z,9.70
2019-02-21T18:18:43.128Z,9.70
2019-02-21T18:21:13.791Z,9.70
2019-02-21T18:23:44.007Z,9.70
2019-02-21T18:26:18.002Z,9.70
2019-02-21T18:28:48.755Z,9.70
2019-02-21T18:31:19.472Z,9.70
2019-02-21T18:33:49.918Z,9.70
2019-02-21T18:36:20.340Z,9.60
2019-02-21T18:38:50.995Z,9.60
2019-02-21T18:41:21.537Z,9.60
2019-02-21T18:43:52.189Z,9.50
2019-02-21T22:49:54.915Z,7.70
2019-02-21T22:52:24.339Z,7.70
2019-02-21T22:54:54.370Z,7.70
2019-02-21T22:57:23.902Z,7.60
2019-02-21T22:59:53.512Z,7.50
2019-02-21T23:04:07.185Z,7.40
2019-02-21T23:11:54.397Z,7.30
2019-02-21T23:14:24.433Z,7.40
2019-02-21T23:16:54.428Z,7.40
2019-02-21T23:19:58.173Z,7.40
2019-02-21T23:22:28.797Z,7.50
2019-02-21T23:25:15.032Z,7.50
2019-02-21T23:29:19.061Z,7.60
2019-02-21T23:31:48.791Z,7.60
2019-02-21T23:42:44.153Z,17.00
